Tropical Cyclones
[Index]
Main Index Home Page Stock Weather Photos Extreme Storms Discussion Storm News and Storm Chasing Reports Tropical Cyclones / Hurricanes / Typhoons Weather Data and Links Wild Fires / Bushfires Weather Observation Techniques Weather Picture Catalogue Tornado Pictures and Reports Stock Video Footage and DVDs for sale
Season 1986-1987 Tropical Cyclone BLANCHE Track Map
Season 1986-1987 Summaries: [BoM-AU] [JTWC-AU] [JTWC-SIO] [JTWC-SPAC] [JTWC-SH]
<<- Previous TC | JTWC 1986-1987 Season | Next TC ->>

click for intensity scale information  Lat/long Grid: Show Hide

 Date Labels: Show Hide

Joint Typhoon Warning Centre Cyclone Data

Name: BLANCHE

20 May 1987 18:00 UTC to 27 May 1987 00:00 UTC

    date/time    lat    long     hPa   cat  kts
1987-05-20 18   10.0   166.9                  25          
1987-05-21 00   10.2   165.7                  25          
1987-05-21 06   10.5   164.5                  25          
1987-05-21 12   10.7   163.4                  25          
1987-05-21 18   10.9   162.3                  25          
1987-05-22 00   11.0   161.4                  30          
1987-05-22 06   11.3   160.7                  30          
1987-05-22 12   11.8   160.0                  30          
1987-05-22 18   12.3   159.4                  35          
1987-05-23 00   13.0   158.9                  35          
1987-05-23 06   13.7   158.6            1     40          
1987-05-23 12   14.4   158.4            1     45          
1987-05-23 18   15.0   158.1            1     45          
1987-05-24 00   15.5   157.8            1     45          
1987-05-24 06   15.9   157.5            1     45          
1987-05-24 12   16.4   157.3            1     45          
1987-05-24 18   16.6   157.1            1     45          
1987-05-25 00   16.6   157.0                  35          
1987-05-25 06   16.6   156.8                  35          
1987-05-25 12   16.9   156.6                  35          
1987-05-25 18   17.5   156.3                  30          
1987-05-26 00   18.1   156.2                  25          
1987-05-26 06   19.0   156.3                  25          
1987-05-26 12   19.8   156.5                  25          
1987-05-26 18   20.4   156.8                  25          
1987-05-27 00   21.6   157.1                  25          
Winds are 1-min average.

Tropical cyclone tracks developed by Michael Bath using data from the Joint Typhoon Warning Centre Best Tracks and Google Maps.


[Australian Severe Weather index] [Copyright Notice] [Email Contacts] [Search This Site] [Privacy Policy]
Document: tropical_cyclone_blanche.htm Updated: 18 September 2016